Time;durP1;ratioP1;P1;durP2;ratioP2;P2;SDS_P1;SDS_P2;PMS_P1;PMS_P2;Temp;Humidity;BMP_temperature;BMP_pressure;BME280_temperature;BME280_humidity;BME280_pressure;Samples;Min_cycle;Max_cycle;Signal;HPM_P1;HPM_P2
2023/07/14 00:00:08;;;;;;;7.60;3.60;;;18.70;35.30;;;;;;5060454;28;49748;-85
2023/07/14 00:02:35;;;;;;;7.67;3.77;;;18.70;35.10;;;;;;5061525;28;46925;-83
2023/07/14 00:05:02;;;;;;;6.23;3.77;;;18.70;35.30;;;;;;5079958;28;46467;-84
2023/07/14 00:07:28;;;;;;;6.37;4.07;;;18.60;34.70;;;;;;5079708;28;46566;-84
2023/07/14 00:09:53;;;;;;;9.93;4.30;;;18.60;35.80;;;;;;5065673;28;49474;-86
2023/07/14 00:12:19;;;;;;;9.03;4.00;;;18.90;36.60;;;;;;5079338;28;46543;-84
2023/07/14 00:14:45;;;;;;;8.67;4.30;;;18.90;37.20;;;;;;5079970;28;46391;-83
2023/07/14 00:17:12;;;;;;;9.77;4.67;;;18.30;37.30;;;;;;5078025;28;46445;-84
2023/07/14 00:19:38;;;;;;;6.33;4.07;;;18.10;37.50;;;;;;5079402;28;46447;-85
2023/07/14 00:22:12;;;;;;;6.83;4.27;;;17.90;39.40;;;;;;5079429;28;46483;-83
2023/07/14 00:24:37;;;;;;;6.83;3.80;;;17.70;40.70;;;;;;5079331;28;45947;-84
2023/07/14 00:27:14;;;;;;;8.03;4.80;;;17.50;41.70;;;;;;5078667;28;46829;-84
2023/07/14 00:29:40;;;;;;;7.37;4.83;;;17.30;42.20;;;;;;5079581;28;47326;-84
2023/07/14 00:32:10;;;;;;;9.27;4.80;;;17.20;43.70;;;;;;5075358;27;47027;-85
2023/07/14 00:34:36;;;;;;;10.23;4.40;;;17.20;44.50;;;;;;5078427;28;46972;-85
2023/07/14 00:37:03;;;;;;;7.60;4.83;;;17.00;44.90;;;;;;5078812;28;46641;-83
2023/07/14 00:39:28;;;;;;;7.73;5.03;;;17.00;43.80;;;;;;5079767;28;46742;-85
2023/07/14 00:41:54;;;;;;;8.33;4.53;;;16.90;44.90;;;;;;5061171;28;49167;-86
2023/07/14 00:44:19;;;;;;;7.60;5.03;;;16.90;44.90;;;;;;5061223;28;46793;-85
2023/07/14 00:46:46;;;;;;;15.30;5.17;;;16.80;44.70;;;;;;5060733;28;46481;-85
2023/07/14 00:49:38;;;;;;;11.40;5.40;;;16.70;44.80;;;;;;5078201;27;49013;-86
2023/07/14 00:52:27;;;;;;;7.13;4.70;;;16.70;46.00;;;;;;5081196;28;46499;-85
2023/07/14 00:54:53;;;;;;;10.50;4.73;;;16.60;46.50;;;;;;5086061;28;46415;-86
2023/07/14 00:57:22;;;;;;;7.13;4.93;;;16.80;46.70;;;;;;5084785;28;46230;-84
2023/07/14 00:59:50;;;;;;;7.13;4.87;;;16.60;46.80;;;;;;5060953;28;49276;-85
2023/07/14 01:02:22;;;;;;;7.33;5.10;;;16.40;47.10;;;;;;5079958;28;46536;-84
2023/07/14 01:04:56;;;;;;;11.63;5.43;;;16.40;47.40;;;;;;5079621;28;46457;-85
2023/07/14 01:07:36;;;;;;;13.83;5.80;;;16.40;47.70;;;;;;5079340;28;46437;-84
2023/07/14 01:10:03;;;;;;;7.53;5.10;;;16.30;48.10;;;;;;5079363;28;46963;-82
2023/07/14 01:12:32;;;;;;;12.50;4.90;;;16.30;48.30;;;;;;5078013;28;45883;-84
2023/07/14 01:14:58;;;;;;;10.80;4.80;;;16.20;48.50;;;;;;5079604;28;46476;-86
2023/07/14 01:17:24;;;;;;;8.27;4.27;;;16.40;49.00;;;;;;5079679;28;45894;-85
2023/07/14 01:20:01;;;;;;;11.90;4.57;;;16.30;49.30;;;;;;5063511;28;48209;-84
2023/07/14 01:22:53;;;;;;;11.53;4.30;;;16.20;49.80;;;;;;5060458;28;46421;-86
2023/07/14 01:25:36;;;;;;;6.90;4.30;;;15.90;50.40;;;;;;5077666;28;46585;-86
2023/07/14 01:28:11;;;;;;;6.97;4.23;;;15.80;51.00;;;;;;5079456;28;46688;-83
2023/07/14 01:30:37;;;;;;;10.20;4.63;;;15.70;51.10;;;;;;5078051;28;47654;-84
2023/07/14 01:33:08;;;;;;;10.33;4.20;;;15.60;51.50;;;;;;5077171;28;47107;-83
2023/07/14 01:35:39;;;;;;;9.83;3.87;;;15.50;52.10;;;;;;5078959;28;45851;-84
2023/07/14 01:38:05;;;;;;;8.13;4.70;;;15.60;53.00;;;;;;5078047;28;46779;-84
2023/07/14 01:40:33;;;;;;;9.70;5.27;;;16.30;54.40;;;;;;5079102;28;46682;-84
2023/07/14 01:43:02;;;;;;;16.17;5.33;;;15.20;54.00;;;;;;5077316;28;46507;-85
2023/07/14 01:45:34;;;;;;;12.60;4.90;;;15.50;54.40;;;;;;5059791;28;46441;-82
2023/07/14 01:48:02;;;;;;;12.13;4.70;;;15.10;54.10;;;;;;5079637;28;46657;-81
2023/07/14 01:50:42;;;;;;;15.53;4.67;;;15.10;54.00;;;;;;5078258;28;48455;-83
2023/07/14 01:53:15;;;;;;;10.17;4.93;;;15.00;53.90;;;;;;5075355;27;45846;-83
2023/07/14 01:55:43;;;;;;;16.33;5.57;;;15.00;53.70;;;;;;5078717;28;46752;-81
2023/07/14 01:58:14;;;;;;;13.60;5.67;;;15.00;53.70;;;;;;5060139;28;46908;-82
2023/07/14 02:00:43;;;;;;;12.13;5.03;;;15.00;53.70;;;;;;5060128;28;49464;-83
2023/07/14 02:03:12;;;;;;;9.60;5.00;;;15.00;53.70;;;;;;5058318;28;46638;-84
2023/07/14 02:05:38;;;;;;;13.33;5.30;;;15.10;53.80;;;;;;5078314;28;46426;-80
2023/07/14 02:08:10;;;;;;;18.30;5.20;;;15.10;53.90;;;;;;5076993;28;46712;-77
2023/07/14 02:10:35;;;;;;;11.40;5.90;;;15.10;54.00;;;;;;5076787;28;49495;-81
2023/07/14 02:13:05;;;;;;;14.83;5.40;;;15.10;54.00;;;;;;5078304;28;46586;-81
2023/07/14 02:15:33;;;;;;;8.40;4.60;;;15.00;54.10;;;;;;5076509;28;46511;-81
2023/07/14 02:18:00;;;;;;;12.77;6.10;;;15.00;54.30;;;;;;5077340;28;46403;-80
2023/07/14 02:20:35;;;;;;;10.23;5.03;;;15.10;54.50;;;;;;5076845;28;46031;-81
2023/07/14 02:23:04;;;;;;;8.20;5.10;;;15.00;54.70;;;;;;5076853;28;46961;-82
2023/07/14 02:25:38;;;;;;;8.97;4.70;;;14.90;54.60;;;;;;5078733;28;46232;-80
2023/07/14 02:28:04;;;;;;;20.50;4.17;;;14.80;55.00;;;;;;5078832;28;46382;-78
2023/07/14 02:30:33;;;;;;;8.87;4.37;;;14.80;55.50;;;;;;5081132;28;47338;-82
2023/07/14 02:33:12;;;;;;;10.53;4.20;;;14.70;56.00;;;;;;5082449;28;46555;-81
2023/07/14 02:36:02;;;;;;;8.30;4.17;;;14.60;55.90;;;;;;5084130;28;46391;-79
2023/07/14 02:38:28;;;;;;;8.53;4.87;;;14.50;55.80;;;;;;5059058;28;46759;-79
2023/07/14 02:41:09;;;;;;;8.10;4.37;;;14.50;55.80;;;;;;5076261;28;47557;-80
2023/07/14 02:43:35;;;;;;;11.03;4.60;;;14.50;55.80;;;;;;5074402;28;47015;-80
2023/07/14 02:46:11;;;;;;;9.73;4.33;;;14.40;56.50;;;;;;5075196;28;46518;-80
2023/07/14 02:48:41;;;;;;;10.17;4.60;;;14.40;54.60;;;;;;5073384;28;46170;-80
2023/07/14 02:51:07;;;;;;;10.00;4.30;;;14.40;55.70;;;;;;5077598;28;47331;-81
2023/07/14 02:53:32;;;;;;;10.80;5.20;;;14.40;55.70;;;;;;5077804;28;46527;-83
2023/07/14 02:55:58;;;;;;;10.23;4.50;;;14.30;55.60;;;;;;5081883;28;46414;-79
2023/07/14 02:58:24;;;;;;;8.03;4.23;;;14.30;55.60;;;;;;5080997;28;46791;-82
2023/07/14 03:00:51;;;;;;;10.37;4.03;;;14.20;55.50;;;;;;5082524;28;47221;-80
2023/07/14 03:03:17;;;;;;;6.63;3.67;;;14.20;55.50;;;;;;5081299;28;46455;-81
2023/07/14 03:05:43;;;;;;;5.83;3.93;;;14.10;55.90;;;;;;5066167;28;46930;-80
2023/07/14 03:08:15;;;;;;;6.50;3.40;;;14.00;56.00;;;;;;5082330;28;46009;-82
2023/07/14 03:10:46;;;;;;;11.00;4.83;;;14.00;56.00;;;;;;5081021;28;48553;-81
2023/07/14 03:13:13;;;;;;;10.47;4.30;;;14.00;55.70;;;;;;5082235;28;46442;-82
2023/07/14 03:15:38;;;;;;;12.20;5.10;;;14.00;55.70;;;;;;5081766;28;46461;-81
2023/07/14 03:18:04;;;;;;;8.43;4.47;;;14.00;55.90;;;;;;5062692;28;46423;-80
2023/07/14 03:20:30;;;;;;;7.97;4.53;;;13.90;55.70;;;;;;5080795;28;46795;-80
2023/07/14 03:22:55;;;;;;;9.87;4.80;;;14.00;55.70;;;;;;5063122;28;46545;-80
2023/07/14 03:25:21;;;;;;;10.60;5.60;;;14.00;55.30;;;;;;5080843;28;46636;-81
2023/07/14 03:27:47;;;;;;;11.43;6.03;;;14.00;54.40;;;;;;5063344;28;46489;-82
2023/07/14 03:30:13;;;;;;;12.63;4.70;;;14.00;55.40;;;;;;5081808;28;46816;-81
2023/07/14 03:32:39;;;;;;;12.23;4.30;;;14.00;55.50;;;;;;5080958;28;46497;-80
2023/07/14 03:35:05;;;;;;;13.73;4.57;;;14.00;55.70;;;;;;5081645;28;46431;-81
2023/07/14 03:37:30;;;;;;;11.00;4.60;;;14.00;56.10;;;;;;5080993;28;46434;-81
2023/07/14 03:39:56;;;;;;;7.80;5.20;;;14.00;55.80;;;;;;5080821;28;46462;-80
2023/07/14 03:42:22;;;;;;;15.77;4.90;;;14.10;55.50;;;;;;5079844;28;46427;-80
2023/07/14 03:44:47;;;;;;;10.37;5.13;;;14.10;55.40;;;;;;5079695;28;46750;-81
2023/07/14 03:47:13;;;;;;;10.67;4.20;;;14.20;55.50;;;;;;5080159;28;46546;-80
2023/07/14 03:49:38;;;;;;;9.03;4.33;;;14.30;54.50;;;;;;5080668;28;46490;-82
2023/07/14 03:52:04;;;;;;;11.50;5.43;;;14.40;55.70;;;;;;5079886;28;47106;-80
2023/07/14 03:54:31;;;;;;;7.93;4.30;;;14.50;55.20;;;;;;5079860;28;46665;-81
2023/07/14 03:56:58;;;;;;;11.23;4.63;;;14.60;54.80;;;;;;5078162;28;46770;-80
2023/07/14 03:59:24;;;;;;;12.20;4.87;;;14.80;54.80;;;;;;5078574;28;46505;-81
2023/07/14 04:01:50;;;;;;;13.87;5.37;;;14.80;54.40;;;;;;5080288;28;46546;-81
2023/07/14 04:04:15;;;;;;;12.07;4.50;;;14.90;54.30;;;;;;5079778;28;46473;-81
2023/07/14 04:06:41;;;;;;;9.03;4.33;;;15.00;54.00;;;;;;5080225;27;46773;-82
2023/07/14 04:09:07;;;;;;;15.37;5.27;;;15.00;53.70;;;;;;5079608;28;46350;-82
2023/07/14 04:11:34;;;;;;;11.00;5.03;;;15.10;53.60;;;;;;5080121;28;46579;-80
2023/07/14 04:14:00;;;;;;;7.70;4.80;;;15.20;53.40;;;;;;5080049;28;46830;-80
2023/07/14 04:16:26;;;;;;;8.77;4.50;;;15.30;53.20;;;;;;5081968;28;46685;-82
2023/07/14 04:18:51;;;;;;;10.33;3.80;;;15.40;53.30;;;;;;5083162;28;47273;-83
2023/07/14 04:21:19;;;;;;;17.17;4.37;;;15.60;53.30;;;;;;5086643;28;46446;-83
2023/07/14 04:23:44;;;;;;;10.80;4.07;;;15.50;52.70;;;;;;5080269;28;46429;-80
2023/07/14 04:26:12;;;;;;;13.73;5.10;;;15.70;52.30;;;;;;5079551;28;45974;-81
2023/07/14 04:28:38;;;;;;;14.30;4.30;;;15.80;52.00;;;;;;5080396;28;46345;-80
2023/07/14 04:31:04;;;;;;;12.83;4.60;;;15.90;51.80;;;;;;5078170;28;46396;-82
2023/07/14 04:33:30;;;;;;;11.13;3.73;;;16.00;51.40;;;;;;5064769;28;46439;-80
2023/07/14 04:35:57;;;;;;;11.03;4.40;;;16.00;50.90;;;;;;5079725;28;46790;-80
2023/07/14 04:38:24;;;;;;;15.87;4.60;;;16.20;50.60;;;;;;5078095;28;46593;-82
2023/07/14 04:40:50;;;;;;;16.57;4.63;;;16.30;50.20;;;;;;5078887;28;46456;-81
2023/07/14 04:43:17;;;;;;;14.80;4.30;;;16.50;50.00;;;;;;5079118;28;46729;-80
2023/07/14 04:45:45;;;;;;;15.53;4.80;;;16.60;49.40;;;;;;5079910;28;46508;-80
2023/07/14 04:48:16;;;;;;;12.13;3.97;;;16.70;49.10;;;;;;5078821;28;46911;-81
2023/07/14 04:50:45;;;;;;;10.10;3.93;;;16.90;48.20;;;;;;5078994;28;46391;-81
2023/07/14 04:53:11;;;;;;;9.70;3.70;;;17.50;46.60;;;;;;5079047;28;46452;-81
2023/07/14 04:55:38;;;;;;;11.30;3.57;;;18.90;44.40;;;;;;5077603;28;45965;-81
2023/07/14 04:58:04;;;;;;;13.23;3.43;;;19.90;41.00;;;;;;5077862;28;48296;-80
2023/07/14 05:00:31;;;;;;;14.40;3.90;;;20.70;37.60;;;;;;5078970;28;46383;-80
2023/07/14 05:02:57;;;;;;;9.53;3.60;;;21.10;35.10;;;;;;5079430;28;46438;-81
2023/07/14 05:05:23;;;;;;;17.30;3.43;;;21.40;34.30;;;;;;5079214;28;46534;-81
2023/07/14 05:07:50;;;;;;;16.47;3.53;;;21.70;33.20;;;;;;5078355;28;46893;-81
2023/07/14 05:10:17;;;;;;;17.43;3.30;;;22.20;31.70;;;;;;5078793;28;46624;-81
2023/07/14 05:12:43;;;;;;;11.77;2.80;;;23.20;29.50;;;;;;5074297;28;46509;-83
2023/07/14 05:15:12;;;;;;;15.70;3.70;;;23.80;27.60;;;;;;5080001;28;46482;-82
2023/07/14 05:17:38;;;;;;;14.90;3.47;;;25.20;23.50;;;;;;5060863;28;49113;-84
2023/07/14 05:20:10;;;;;;;16.87;3.20;;;25.30;24.00;;;;;;5079169;28;45758;-83
2023/07/14 05:22:36;;;;;;;12.43;3.30;;;25.90;22.20;;;;;;5078704;28;46866;-82
2023/07/14 05:25:03;;;;;;;7.73;2.90;;;26.60;20.50;;;;;;5078835;28;46693;-83
2023/07/14 05:27:29;;;;;;;10.70;2.93;;;26.90;18.80;;;;;;5051418;28;49515;-82
2023/07/14 05:29:54;;;;;;;7.43;2.43;;;27.40;17.40;;;;;;5077125;27;46527;-78
2023/07/14 05:32:21;;;;;;;10.03;2.93;;;27.80;17.30;;;;;;5076240;28;46666;-84
2023/07/14 05:34:48;;;;;;;7.27;2.90;;;28.10;15.30;;;;;;5077606;28;46852;-84
2023/07/14 05:37:14;;;;;;;7.30;2.80;;;28.30;14.60;;;;;;5077621;28;46487;-84
2023/07/14 05:39:40;;;;;;;12.93;2.93;;;28.70;14.10;;;;;;5078611;28;46492;-83
2023/07/14 05:42:06;;;;;;;6.20;2.67;;;29.00;13.20;;;;;;5078440;27;46434;-83
2023/07/14 05:44:32;;;;;;;7.03;2.67;;;29.40;12.10;;;;;;5078498;28;46601;-83
2023/07/14 05:46:57;;;;;;;6.97;2.87;;;29.70;11.50;;;;;;5077139;27;48032;-83
2023/07/14 05:49:23;;;;;;;9.87;2.73;;;29.80;10.90;;;;;;5077468;27;46883;-85
2023/07/14 05:51:50;;;;;;;6.50;2.60;;;30.30;9.60;;;;;;5080884;28;45806;-83
2023/07/14 05:54:17;;;;;;;6.67;2.50;;;30.60;8.20;;;;;;5082728;28;46201;-85
2023/07/14 05:56:42;;;;;;;8.70;2.63;;;31.00;7.20;;;;;;5076588;27;47977;-84
2023/07/14 05:59:08;;;;;;;5.17;3.10;;;31.20;6.80;;;;;;5079565;28;46723;-84
2023/07/14 06:01:33;;;;;;;8.10;2.60;;;30.60;7.50;;;;;;5076160;28;46386;-81
2023/07/14 06:03:59;;;;;;;5.60;2.93;;;29.30;11.00;;;;;;5074312;28;46842;-81
2023/07/14 06:06:26;;;;;;;4.67;2.43;;;28.50;12.30;;;;;;5079711;28;46707;-85
2023/07/14 06:08:53;;;;;;;13.70;3.20;;;27.90;13.40;;;;;;5083212;28;46724;-82
2023/07/14 06:11:19;;;;;;;10.53;3.33;;;27.20;15.10;;;;;;5079234;28;46863;-83
2023/07/14 06:13:45;;;;;;;6.00;2.57;;;26.60;16.30;;;;;;5079472;28;46607;-83
2023/07/14 06:16:10;;;;;;;8.90;2.63;;;26.30;16.80;;;;;;5077486;28;49142;-82
2023/07/14 06:18:36;;;;;;;10.77;4.00;;;25.80;17.30;;;;;;5077415;28;46680;-81
2023/07/14 06:21:01;;;;;;;7.67;2.90;;;25.70;18.10;;;;;;5079826;28;45958;-84
2023/07/14 06:23:27;;;;;;;9.70;2.97;;;25.30;18.30;;;;;;5079382;28;46681;-83
2023/07/14 06:25:54;;;;;;;9.73;2.60;;;25.20;18.00;;;;;;5079491;28;47605;-83
2023/07/14 06:28:20;;;;;;;5.80;2.90;;;25.00;17.40;;;;;;5078304;28;46630;-83
2023/07/14 06:30:46;;;;;;;6.77;3.00;;;24.80;16.80;;;;;;5081207;27;46371;-83
2023/07/14 06:33:12;;;;;;;6.60;3.00;;;24.70;16.30;;;;;;5082357;28;46884;-82
2023/07/14 06:35:40;;;;;;;8.83;3.20;;;24.60;16.60;;;;;;5081536;28;46508;-82
2023/07/14 06:38:06;;;;;;;7.50;3.00;;;24.50;16.60;;;;;;5081841;28;46475;-84
2023/07/14 06:40:31;;;;;;;7.83;3.83;;;24.50;16.50;;;;;;5081222;27;46450;-82
2023/07/14 06:43:00;;;;;;;4.97;3.13;;;24.30;16.70;;;;;;5083038;28;46222;-84
2023/07/14 06:45:27;;;;;;;7.47;3.10;;;24.20;17.00;;;;;;5081813;28;46048;-82
2023/07/14 06:47:52;;;;;;;9.07;4.10;;;24.00;16.70;;;;;;5081849;28;46374;-83
2023/07/14 06:50:18;;;;;;;7.87;3.20;;;23.80;17.10;;;;;;5082504;28;46505;-84
2023/07/14 06:52:44;;;;;;;11.20;3.53;;;23.40;17.40;;;;;;5082833;28;46220;-84
2023/07/14 06:55:10;;;;;;;13.13;4.10;;;23.50;17.10;;;;;;5081225;28;46665;-83
2023/07/14 06:57:36;;;;;;;11.37;3.60;;;23.70;16.10;;;;;;5081195;28;46170;-84
2023/07/14 07:00:03;;;;;;;17.00;4.30;;;23.70;17.00;;;;;;5082249;28;46481;-83
2023/07/14 07:02:28;;;;;;;6.93;3.90;;;23.80;16.90;;;;;;5078925;28;46575;-83
2023/07/14 07:04:54;;;;;;;8.13;3.80;;;23.50;17.70;;;;;;5082092;28;46525;-83
2023/07/14 07:07:19;;;;;;;6.40;3.30;;;23.20;18.20;;;;;;5082388;28;46284;-82
2023/07/14 07:09:45;;;;;;;9.13;3.70;;;23.20;18.30;;;;;;5060877;28;46528;-82
2023/07/14 07:12:11;;;;;;;6.93;3.53;;;23.40;17.80;;;;;;5081762;28;46583;-82
2023/07/14 07:14:36;;;;;;;6.93;3.47;;;23.50;17.60;;;;;;5080837;28;47029;-83
2023/07/14 07:17:02;;;;;;;7.87;3.27;;;23.50;17.50;;;;;;5081597;28;46375;-84
2023/07/14 07:19:28;;;;;;;6.23;3.13;;;23.80;17.00;;;;;;5081489;28;46795;-83
2023/07/14 07:21:56;;;;;;;7.37;3.10;;;24.20;16.20;;;;;;5080547;27;46814;-82
2023/07/14 07:24:22;;;;;;;5.67;2.90;;;24.50;15.60;;;;;;5082005;28;46718;-82
2023/07/14 07:26:47;;;;;;;5.70;3.20;;;24.60;15.40;;;;;;5080786;28;46563;-82
2023/07/14 07:29:13;;;;;;;7.73;3.43;;;24.60;15.40;;;;;;5069325;28;46759;-81
2023/07/14 07:31:39;;;;;;;7.73;2.90;;;24.80;15.10;;;;;;5081712;28;46430;-82
2023/07/14 07:34:05;;;;;;;19.87;3.57;;;24.90;14.90;;;;;;5081615;28;46557;-83
2023/07/14 07:36:31;;;;;;;6.67;3.27;;;24.70;15.20;;;;;;5062235;28;46812;-83
2023/07/14 07:38:56;;;;;;;6.57;2.80;;;24.60;15.30;;;;;;5081134;28;46922;-82
2023/07/14 07:41:24;;;;;;;6.20;2.80;;;24.40;15.40;;;;;;5062923;28;46495;-83
2023/07/14 07:43:50;;;;;;;6.03;2.90;;;23.90;15.80;;;;;;5061861;28;48026;-83
2023/07/14 07:46:16;;;;;;;16.20;2.97;;;24.00;16.10;;;;;;5081775;28;46869;-82
2023/07/14 07:48:44;;;;;;;8.67;2.50;;;24.20;16.00;;;;;;5082487;28;46449;-84
2023/07/14 07:51:09;;;;;;;5.13;2.50;;;24.40;15.70;;;;;;5081560;27;46537;-83
2023/07/14 07:53:35;;;;;;;6.50;3.13;;;24.20;15.50;;;;;;5084657;28;46913;-85
2023/07/14 07:56:02;;;;;;;8.07;2.60;;;24.20;16.10;;;;;;5086142;28;46147;-86
2023/07/14 07:58:29;;;;;;;6.37;2.90;;;24.70;14.80;;;;;;5081114;28;46501;-82
2023/07/14 08:00:57;;;;;;;10.03;2.50;;;24.70;15.40;;;;;;5061822;28;46487;-80
2023/07/14 08:03:23;;;;;;;5.80;2.60;;;24.70;15.00;;;;;;5079954;28;46505;-82
2023/07/14 08:05:49;;;;;;;5.10;2.40;;;24.50;14.60;;;;;;5079467;28;45902;-82
2023/07/14 08:08:15;;;;;;;4.23;2.50;;;24.60;15.30;;;;;;5080307;27;46424;-82
2023/07/14 08:10:43;;;;;;;4.80;2.20;;;24.70;14.70;;;;;;5079754;28;46438;-81
2023/07/14 08:13:09;;;;;;;7.80;2.30;;;24.90;15.80;;;;;;5080308;28;46829;-82
2023/07/14 08:15:38;;;;;;;5.03;2.40;;;25.20;14.30;;;;;;5078340;28;46629;-84
2023/07/14 08:18:06;;;;;;;7.73;2.50;;;25.50;13.50;;;;;;5080319;28;46482;-83
2023/07/14 08:20:32;;;;;;;5.20;2.33;;;25.80;12.60;;;;;;5080182;27;46538;-79
2023/07/14 08:23:00;;;;;;;6.43;2.00;;;25.80;12.50;;;;;;5080204;28;46699;-82
2023/07/14 08:25:26;;;;;;;5.50;2.47;;;25.70;12.50;;;;;;5079920;28;46431;-82
2023/07/14 08:27:51;;;;;;;4.93;1.80;;;25.50;11.90;;;;;;5080086;28;47127;-82
2023/07/14 08:30:18;;;;;;;7.07;2.83;;;25.50;12.70;;;;;;5081417;28;46450;-81
2023/07/14 08:32:44;;;;;;;7.30;2.20;;;25.60;12.40;;;;;;5078277;28;49399;-83
2023/07/14 08:35:09;;;;;;;7.60;2.60;;;25.60;12.40;;;;;;5080545;28;46512;-83
2023/07/14 08:37:35;;;;;;;9.37;2.50;;;25.70;11.40;;;;;;5079975;28;46602;-82
2023/07/14 08:40:00;;;;;;;4.80;2.07;;;25.70;12.30;;;;;;5079677;28;46471;-82
2023/07/14 08:43:13;;;;;;;5.90;1.97;;;25.70;12.40;;;;;;5080817;28;46686;-82
2023/07/14 08:45:51;;;;;;;5.90;2.50;;;26.00;11.60;;;;;;5060570;28;46439;-80
2023/07/14 08:48:26;;;;;;;7.17;1.83;;;26.20;11.00;;;;;;5080085;28;46690;-82
2023/07/14 08:50:55;;;;;;;8.00;2.63;;;26.00;10.50;;;;;;5080105;28;46181;-82
2023/07/14 08:53:29;;;;;;;5.97;2.50;;;26.00;10.70;;;;;;5079971;27;48076;-81
2023/07/14 08:56:03;;;;;;;6.03;2.37;;;26.20;10.60;;;;;;5079545;28;46438;-82
2023/07/14 08:58:33;;;;;;;5.57;2.23;;;26.20;10.40;;;;;;5080649;28;47564;-82
2023/07/14 09:01:23;;;;;;;7.13;2.10;;;26.10;10.60;;;;;;5080730;28;46511;-82
2023/07/14 09:03:53;;;;;;;3.80;1.93;;;26.00;10.70;;;;;;5060685;28;48533;-83
2023/07/14 09:06:30;;;;;;;6.57;2.20;;;26.10;10.50;;;;;;5081754;28;46589;-80
2023/07/14 09:08:56;;;;;;;4.40;2.30;;;26.40;10.50;;;;;;5082232;28;46367;-81
2023/07/14 09:11:49;;;;;;;6.83;2.50;;;26.80;9.90;;;;;;5077609;28;46679;-81
2023/07/14 09:14:31;;;;;;;6.17;2.50;;;27.00;8.90;;;;;;5080746;28;46748;-80
2023/07/14 09:17:24;;;;;;;6.27;2.20;;;27.00;8.10;;;;;;5062066;28;46501;-78
2023/07/14 09:20:02;;;;;;;6.33;2.20;;;26.70;7.60;;;;;;5075668;28;46858;-84
2023/07/14 09:22:53;;;;;;;7.50;2.20;;;26.50;8.80;;;;;;5076950;28;45973;-82
2023/07/14 09:25:25;;;;;;;5.80;2.00;;;26.40;8.20;;;;;;5078837;28;47701;-85
2023/07/14 09:27:51;;;;;;;8.40;2.00;;;26.70;7.10;;;;;;5077745;28;46526;-82
2023/07/14 09:30:26;;;;;;;9.00;2.50;;;26.70;8.00;;;;;;5082961;27;46465;-82
2023/07/14 09:33:01;;;;;;;4.73;2.00;;;26.70;7.20;;;;;;5081138;28;45910;-84
2023/07/14 09:35:28;;;;;;;4.13;1.83;;;26.60;7.40;;;;;;5076165;28;50246;-78
2023/07/14 09:37:57;;;;;;;3.90;1.80;;;26.70;6.70;;;;;;5075570;27;46415;-81
2023/07/14 09:40:26;;;;;;;4.10;1.93;;;26.80;7.30;;;;;;5077452;27;47081;-81
2023/07/14 09:42:54;;;;;;;5.37;2.07;;;26.90;6.80;;;;;;5078443;27;46541;-84
2023/07/14 09:45:23;;;;;;;4.43;1.80;;;27.10;6.50;;;;;;5079927;27;46539;-83
2023/07/14 09:48:17;;;;;;;6.90;2.30;;;27.70;5.00;;;;;;5077686;28;46650;-83
2023/07/14 09:50:56;;;;;;;3.80;1.93;;;27.60;4.90;;;;;;5075333;27;46495;-82
2023/07/14 09:53:22;;;;;;;6.23;2.17;;;27.60;4.90;;;;;;5078669;28;46550;-83
2023/07/14 09:56:04;;;;;;;6.40;2.00;;;27.90;5.00;;;;;;5074406;28;46936;-82
2023/07/14 09:58:32;;;;;;;8.53;2.03;;;28.00;5.10;;;;;;5074487;27;46638;-83
2023/07/14 10:01:12;;;;;;;6.17;2.03;;;27.90;5.00;;;;;;5076247;28;47032;-81
2023/07/14 10:03:52;;;;;;;4.63;1.63;;;27.90;5.10;;;;;;5063057;28;46462;-81
2023/07/14 10:06:26;;;;;;;3.90;1.80;;;28.20;3.90;;;;;;5080709;28;46747;-83
2023/07/14 10:09:05;;;;;;;3.70;1.47;;;28.40;2.50;;;;;;5080898;27;46926;-79
2023/07/14 10:11:45;;;;;;;10.60;2.40;;;28.50;3.30;;;;;;5082517;28;46430;-80
2023/07/14 10:14:19;;;;;;;8.60;2.03;;;28.70;2.90;;;;;;5081099;27;47005;-81
2023/07/14 10:16:45;;;;;;;7.13;2.00;;;28.70;2.90;;;;;;5079431;28;48323;-79
2023/07/14 10:19:14;;;;;;;4.17;1.80;;;28.50;2.50;;;;;;5079890;28;46496;-80
2023/07/14 10:22:12;;;;;;;4.27;1.93;;;28.50;3.10;;;;;;5081487;28;46495;-80
2023/07/14 10:24:38;;;;;;;5.83;2.10;;;28.10;2.40;;;;;;5071195;27;46577;-77
2023/07/14 10:27:17;;;;;;;10.90;2.50;;;28.20;2.50;;;;;;5080241;27;49020;-83
2023/07/14 10:29:50;;;;;;;6.90;2.50;;;28.50;2.40;;;;;;5081151;27;45841;-81
2023/07/14 10:32:31;;;;;;;5.83;2.00;;;28.60;2.20;;;;;;5079233;27;46406;-82
2023/07/14 10:35:17;;;;;;;9.30;2.23;;;29.00;2.00;;;;;;5080937;28;46503;-84
2023/07/14 10:38:09;;;;;;;6.33;2.13;;;28.80;1.00;;;;;;5079032;27;47658;-78
2023/07/14 10:40:39;;;;;;;3.47;1.73;;;28.80;1.00;;;;;;5064884;28;47115;-83
2023/07/14 10:43:44;;;;;;;6.53;2.00;;;28.60;1.00;;;;;;5082134;28;46485;-81
2023/07/14 10:46:34;;;;;;;4.13;1.90;;;28.90;1.00;;;;;;5050053;28;46517;-83
2023/07/14 10:49:15;;;;;;;3.50;1.70;;;28.80;1.00;;;;;;5081027;28;46205;-86
2023/07/14 10:51:46;;;;;;;6.60;2.40;;;28.90;1.00;;;;;;5064813;28;46556;-86
2023/07/14 10:54:42;;;;;;;6.97;1.93;;;29.10;1.00;;;;;;5086534;28;46450;-85
2023/07/14 10:57:21;;;;;;;4.77;2.27;;;29.20;1.00;;;;;;5088678;27;46562;-81
2023/07/14 10:59:57;;;;;;;5.20;2.20;;;29.10;1.00;;;;;;5083920;28;46475;-80
2023/07/14 11:02:41;;;;;;;4.83;2.37;;;29.10;1.00;;;;;;5082009;27;46385;-85
2023/07/14 11:05:14;;;;;;;4.33;2.13;;;28.80;1.00;;;;;;5081672;27;46910;-82
2023/07/14 11:07:40;;;;;;;4.23;1.80;;;28.80;1.00;;;;;;5081414;28;46541;-80
2023/07/14 11:10:37;;;;;;;5.43;2.07;;;29.10;1.00;;;;;;5079232;28;47349;-82
2023/07/14 11:13:15;;;;;;;4.30;1.60;;;29.20;1.00;;;;;;5079870;27;47298;-84
2023/07/14 11:15:47;;;;;;;5.03;1.83;;;29.30;1.00;;;;;;5078716;27;46762;-83
2023/07/14 11:18:13;;;;;;;5.47;2.20;;;29.00;1.00;;;;;;5081488;28;46413;-79
2023/07/14 11:20:52;;;;;;;3.70;2.07;;;29.40;1.00;;;;;;5084092;27;47550;-83
2023/07/14 11:23:33;;;;;;;4.00;2.00;;;30.10;1.00;;;;;;5083341;28;46433;-79
2023/07/14 11:26:17;;;;;;;4.93;2.57;;;30.30;1.00;;;;;;5084141;28;45818;-79
2023/07/14 11:28:47;;;;;;;4.33;2.07;;;30.50;1.00;;;;;;5084342;28;46405;-81
2023/07/14 11:31:27;;;;;;;5.60;2.40;;;30.40;1.00;;;;;;5065553;28;48228;-81
2023/07/14 11:34:02;;;;;;;4.33;2.17;;;30.40;1.00;;;;;;5066253;28;47131;-80
2023/07/14 11:36:50;;;;;;;4.03;2.13;;;30.50;1.00;;;;;;5084878;28;46794;-79
2023/07/14 11:39:53;;;;;;;4.60;2.17;;;30.30;1.00;;;;;;5084645;28;46469;-80
2023/07/14 11:42:25;;;;;;;4.93;1.67;;;30.20;1.00;;;;;;5082097;28;48604;-79
2023/07/14 11:44:53;;;;;;;7.67;1.97;;;30.10;1.00;;;;;;5084157;28;46366;-79
2023/07/14 11:47:31;;;;;;;4.80;2.20;;;30.20;1.00;;;;;;5084683;28;46624;-80
2023/07/14 11:50:02;;;;;;;6.77;2.30;;;30.00;1.00;;;;;;5065489;28;47012;-80
2023/07/14 11:52:29;;;;;;;10.40;2.50;;;29.70;1.00;;;;;;5082668;28;47986;-80
2023/07/14 11:55:18;;;;;;;12.47;2.53;;;29.70;1.00;;;;;;5081554;28;46525;-80
2023/07/14 11:57:51;;;;;;;5.43;2.13;;;29.90;1.00;;;;;;5065580;28;46348;-82
2023/07/14 12:00:22;;;;;;;6.43;2.07;;;29.90;1.00;;;;;;5065763;28;46587;-79
2023/07/14 12:02:48;;;;;;;5.20;2.27;;;30.20;1.00;;;;;;5085816;28;46849;-80
2023/07/14 12:05:14;;;;;;;3.50;1.70;;;30.30;1.00;;;;;;5066416;28;46588;-78
2023/07/14 12:08:01;;;;;;;6.77;2.03;;;31.20;1.00;;;;;;5083521;28;46773;-80
2023/07/14 12:10:40;;;;;;;6.57;2.40;;;31.20;1.00;;;;;;5081592;28;46464;-81
2023/07/14 12:13:26;;;;;;;5.90;3.00;;;31.10;1.00;;;;;;5083637;28;46443;-81
2023/07/14 12:15:55;;;;;;;5.73;2.37;;;30.80;1.00;;;;;;5064801;28;46489;-81
2023/07/14 12:18:33;;;;;;;6.67;2.27;;;30.40;1.00;;;;;;5081193;28;47302;-83
2023/07/14 12:21:14;;;;;;;4.93;2.40;;;30.20;1.00;;;;;;5062506;28;46478;-80
2023/07/14 12:23:40;;;;;;;6.77;2.20;;;30.20;1.00;;;;;;5065639;28;48529;-78
2023/07/14 12:26:14;;;;;;;10.50;2.57;;;30.40;1.00;;;;;;5083060;28;46775;-81
2023/07/14 12:28:40;;;;;;;4.10;1.87;;;30.40;1.00;;;;;;5083887;27;46446;-80
2023/07/14 12:31:16;;;;;;;4.57;1.90;;;30.40;1.00;;;;;;5082563;28;47438;-78
2023/07/14 12:33:42;;;;;;;6.10;2.20;;;30.30;1.00;;;;;;5082365;28;49312;-80
2023/07/14 12:36:19;;;;;;;9.87;2.10;;;30.20;1.00;;;;;;5081559;28;46810;-81
2023/07/14 12:38:47;;;;;;;4.60;2.10;;;30.20;1.00;;;;;;5080727;28;46786;-79
2023/07/14 12:41:14;;;;;;;12.87;2.00;;;30.60;1.00;;;;;;5081333;28;46653;-80
2023/07/14 12:43:43;;;;;;;4.43;2.00;;;30.70;1.00;;;;;;5082618;28;46188;-81
2023/07/14 12:46:25;;;;;;;4.80;2.07;;;30.60;1.00;;;;;;5082660;28;46422;-81
2023/07/14 12:48:57;;;;;;;4.67;1.90;;;30.70;1.00;;;;;;5081694;28;46565;-81
2023/07/14 12:51:23;;;;;;;3.93;1.83;;;30.90;1.00;;;;;;5081286;27;46434;-80
2023/07/14 12:54:01;;;;;;;7.67;2.63;;;30.90;1.00;;;;;;5083741;28;46742;-80
2023/07/14 12:56:30;;;;;;;4.50;2.17;;;30.50;1.00;;;;;;5083138;28;46735;-79
2023/07/14 12:58:58;;;;;;;4.03;2.23;;;30.30;1.00;;;;;;5084579;28;46561;-80
2023/07/14 13:01:24;;;;;;;10.83;2.03;;;30.10;1.00;;;;;;5084183;28;45875;-79